sensor_id;sensor_type;location;lat;lon;timestamp;temperature;humidity
39675;DHT22;27790;50.840;4.386;2022-08-20T00:00:13;20.30;94.30
39675;DHT22;27790;50.840;4.386;2022-08-20T00:02:47;20.30;94.20
39675;DHT22;27790;50.840;4.386;2022-08-20T00:05:14;20.20;94.30
39675;DHT22;27790;50.840;4.386;2022-08-20T00:07:39;20.20;94.30
39675;DHT22;27790;50.840;4.386;2022-08-20T00:10:06;20.10;94.50
39675;DHT22;27790;50.840;4.386;2022-08-20T00:12:34;20.00;94.50
39675;DHT22;27790;50.840;4.386;2022-08-20T00:15:00;20.10;94.40
39675;DHT22;27790;50.840;4.386;2022-08-20T00:17:26;20.20;94.30
39675;DHT22;27790;50.840;4.386;2022-08-20T00:19:52;20.20;94.20
39675;DHT22;27790;50.840;4.386;2022-08-20T00:22:17;20.20;94.10
39675;DHT22;27790;50.840;4.386;2022-08-20T00:24:43;20.30;94.30
39675;DHT22;27790;50.840;4.386;2022-08-20T00:27:10;20.20;94.40
39675;DHT22;27790;50.840;4.386;2022-08-20T00:29:35;20.20;94.30
39675;DHT22;27790;50.840;4.386;2022-08-20T00:32:01;20.20;94.20
39675;DHT22;27790;50.840;4.386;2022-08-20T00:34:27;20.20;94.10
39675;DHT22;27790;50.840;4.386;2022-08-20T00:36:52;20.20;94.10
39675;DHT22;27790;50.840;4.386;2022-08-20T00:39:18;20.20;93.90
39675;DHT22;27790;50.840;4.386;2022-08-20T00:41:44;20.20;93.70
39675;DHT22;27790;50.840;4.386;2022-08-20T00:44:19;20.10;93.80
39675;DHT22;27790;50.840;4.386;2022-08-20T00:46:47;20.00;93.80
39675;DHT22;27790;50.840;4.386;2022-08-20T00:49:19;20.00;93.80
39675;DHT22;27790;50.840;4.386;2022-08-20T00:51:51;20.00;94.00
39675;DHT22;27790;50.840;4.386;2022-08-20T00:57:06;19.80;94.00
39675;DHT22;27790;50.840;4.386;2022-08-20T00:59:34;19.80;94.10
39675;DHT22;27790;50.840;4.386;2022-08-20T01:02:04;19.80;94.20
39675;DHT22;27790;50.840;4.386;2022-08-20T01:04:33;19.80;94.10
39675;DHT22;27790;50.840;4.386;2022-08-20T01:07:00;19.80;94.20
39675;DHT22;27790;50.840;4.386;2022-08-20T01:09:26;19.80;94.10
39675;DHT22;27790;50.840;4.386;2022-08-20T01:11:53;19.90;93.90
39675;DHT22;27790;50.840;4.386;2022-08-20T01:14:20;19.90;93.70
39675;DHT22;27790;50.840;4.386;2022-08-20T01:16:55;19.80;93.60
39675;DHT22;27790;50.840;4.386;2022-08-20T01:19:26;19.90;93.50
39675;DHT22;27790;50.840;4.386;2022-08-20T01:21:53;19.80;93.80
39675;DHT22;27790;50.840;4.386;2022-08-20T01:24:31;19.80;93.50
39675;DHT22;27790;50.840;4.386;2022-08-20T01:27:00;19.70;93.60
39675;DHT22;27790;50.840;4.386;2022-08-20T01:29:33;19.70;93.80
39675;DHT22;27790;50.840;4.386;2022-08-20T01:31:59;19.70;93.60
39675;DHT22;27790;50.840;4.386;2022-08-20T01:34:27;19.60;93.80
39675;DHT22;27790;50.840;4.386;2022-08-20T01:36:55;19.60;93.80
39675;DHT22;27790;50.840;4.386;2022-08-20T01:39:31;19.60;93.80
39675;DHT22;27790;50.840;4.386;2022-08-20T01:42:22;19.60;93.90
39675;DHT22;27790;50.840;4.386;2022-08-20T01:44:50;19.50;94.00
39675;DHT22;27790;50.840;4.386;2022-08-20T01:47:26;19.50;94.00
39675;DHT22;27790;50.840;4.386;2022-08-20T01:49:56;19.40;94.10
39675;DHT22;27790;50.840;4.386;2022-08-20T01:55:05;19.30;94.40
39675;DHT22;27790;50.840;4.386;2022-08-20T01:57:30;19.10;94.50
39675;DHT22;27790;50.840;4.386;2022-08-20T01:59:56;19.10;94.60
39675;DHT22;27790;50.840;4.386;2022-08-20T02:02:21;19.00;94.80
39675;DHT22;27790;50.840;4.386;2022-08-20T02:04:48;18.90;94.80
39675;DHT22;27790;50.840;4.386;2022-08-20T02:07:18;18.90;94.90
39675;DHT22;27790;50.840;4.386;2022-08-20T02:09:44;18.80;95.10
39675;DHT22;27790;50.840;4.386;2022-08-20T02:12:10;18.80;95.00
39675;DHT22;27790;50.840;4.386;2022-08-20T02:14:44;18.80;95.10
39675;DHT22;27790;50.840;4.386;2022-08-20T02:17:11;18.70;95.30
39675;DHT22;27790;50.840;4.386;2022-08-20T02:19:44;18.70;94.90
39675;DHT22;27790;50.840;4.386;2022-08-20T02:22:23;18.60;95.00
39675;DHT22;27790;50.840;4.386;2022-08-20T02:24:49;18.60;95.10
39675;DHT22;27790;50.840;4.386;2022-08-20T02:27:15;18.50;95.20
39675;DHT22;27790;50.840;4.386;2022-08-20T02:29:43;18.50;95.30
39675;DHT22;27790;50.840;4.386;2022-08-20T02:32:09;18.50;95.20
39675;DHT22;27790;50.840;4.386;2022-08-20T02:34:36;18.50;95.30
39675;DHT22;27790;50.840;4.386;2022-08-20T02:37:03;18.50;95.40
39675;DHT22;27790;50.840;4.386;2022-08-20T02:39:29;18.40;95.60
39675;DHT22;27790;50.840;4.386;2022-08-20T02:41:55;18.40;95.40
39675;DHT22;27790;50.840;4.386;2022-08-20T02:44:20;18.40;95.60
39675;DHT22;27790;50.840;4.386;2022-08-20T02:46:47;18.40;95.70
39675;DHT22;27790;50.840;4.386;2022-08-20T02:49:16;18.40;95.50
39675;DHT22;27790;50.840;4.386;2022-08-20T02:51:43;18.30;95.50
39675;DHT22;27790;50.840;4.386;2022-08-20T02:54:09;18.40;95.50
39675;DHT22;27790;50.840;4.386;2022-08-20T02:56:35;18.30;95.60
39675;DHT22;27790;50.840;4.386;2022-08-20T02:59:01;18.30;95.70
39675;DHT22;27790;50.840;4.386;2022-08-20T03:01:27;18.20;95.80
39675;DHT22;27790;50.840;4.386;2022-08-20T03:03:52;18.20;95.90
39675;DHT22;27790;50.840;4.386;2022-08-20T03:06:21;18.10;95.90
39675;DHT22;27790;50.840;4.386;2022-08-20T03:08:48;18.10;95.90
39675;DHT22;27790;50.840;4.386;2022-08-20T03:11:15;18.10;95.90
39675;DHT22;27790;50.840;4.386;2022-08-20T03:13:40;18.10;95.90
39675;DHT22;27790;50.840;4.386;2022-08-20T03:16:06;18.10;95.80
39675;DHT22;27790;50.840;4.386;2022-08-20T03:18:36;18.10;95.80
39675;DHT22;27790;50.840;4.386;2022-08-20T03:21:04;18.20;95.90
39675;DHT22;27790;50.840;4.386;2022-08-20T03:23:30;18.20;95.80
39675;DHT22;27790;50.840;4.386;2022-08-20T03:25:55;18.20;95.60
39675;DHT22;27790;50.840;4.386;2022-08-20T03:28:21;18.30;95.40
39675;DHT22;27790;50.840;4.386;2022-08-20T03:30:47;18.40;95.50
39675;DHT22;27790;50.840;4.386;2022-08-20T03:33:12;18.50;95.20
39675;DHT22;27790;50.840;4.386;2022-08-20T03:35:38;18.50;95.10
39675;DHT22;27790;50.840;4.386;2022-08-20T03:38:09;18.50;95.00
39675;DHT22;27790;50.840;4.386;2022-08-20T03:40:36;18.50;95.10
39675;DHT22;27790;50.840;4.386;2022-08-20T03:43:03;18.50;94.90
39675;DHT22;27790;50.840;4.386;2022-08-20T03:45:28;18.40;94.80
39675;DHT22;27790;50.840;4.386;2022-08-20T03:47:55;18.30;95.10
39675;DHT22;27790;50.840;4.386;2022-08-20T03:50:25;18.30;95.30
39675;DHT22;27790;50.840;4.386;2022-08-20T03:52:51;18.20;95.40
39675;DHT22;27790;50.840;4.386;2022-08-20T03:55:18;18.20;95.50
39675;DHT22;27790;50.840;4.386;2022-08-20T03:57:46;18.20;95.70
39675;DHT22;27790;50.840;4.386;2022-08-20T04:00:15;18.30;95.50
39675;DHT22;27790;50.840;4.386;2022-08-20T04:02:43;18.40;95.10
39675;DHT22;27790;50.840;4.386;2022-08-20T04:05:09;18.50;95.00
39675;DHT22;27790;50.840;4.386;2022-08-20T04:07:34;18.40;95.00
39675;DHT22;27790;50.840;4.386;2022-08-20T04:10:06;18.40;95.10
39675;DHT22;27790;50.840;4.386;2022-08-20T04:12:34;18.40;95.00
39675;DHT22;27790;50.840;4.386;2022-08-20T04:15:07;18.30;94.90
39675;DHT22;27790;50.840;4.386;2022-08-20T04:17:32;18.20;95.10
39675;DHT22;27790;50.840;4.386;2022-08-20T04:19:58;18.20;95.20
39675;DHT22;27790;50.840;4.386;2022-08-20T04:22:23;18.10;95.30
39675;DHT22;27790;50.840;4.386;2022-08-20T04:24:49;18.00;95.40
39675;DHT22;27790;50.840;4.386;2022-08-20T04:27:15;18.00;95.80
39675;DHT22;27790;50.840;4.386;2022-08-20T04:29:40;17.90;95.70
39675;DHT22;27790;50.840;4.386;2022-08-20T04:32:08;17.90;95.70
39675;DHT22;27790;50.840;4.386;2022-08-20T04:34:34;17.90;95.80
39675;DHT22;27790;50.840;4.386;2022-08-20T04:36:59;17.90;95.90
39675;DHT22;27790;50.840;4.386;2022-08-20T04:39:25;17.80;95.90
39675;DHT22;27790;50.840;4.386;2022-08-20T04:41:51;17.80;95.90
39675;DHT22;27790;50.840;4.386;2022-08-20T04:44:17;17.80;95.90
39675;DHT22;27790;50.840;4.386;2022-08-20T04:46:43;17.70;95.90
39675;DHT22;27790;50.840;4.386;2022-08-20T04:49:09;17.70;96.00
39675;DHT22;27790;50.840;4.386;2022-08-20T04:51:34;17.70;95.90
39675;DHT22;27790;50.840;4.386;2022-08-20T04:54:00;17.70;96.00
39675;DHT22;27790;50.840;4.386;2022-08-20T04:56:29;17.60;96.10
39675;DHT22;27790;50.840;4.386;2022-08-20T04:58:58;17.60;96.10
39675;DHT22;27790;50.840;4.386;2022-08-20T05:01:24;17.60;96.00
39675;DHT22;27790;50.840;4.386;2022-08-20T05:03:51;17.60;95.90
39675;DHT22;27790;50.840;4.386;2022-08-20T05:06:19;17.60;96.10
39675;DHT22;27790;50.840;4.386;2022-08-20T05:08:45;17.70;96.10
39675;DHT22;27790;50.840;4.386;2022-08-20T05:11:11;17.60;96.00
39675;DHT22;27790;50.840;4.386;2022-08-20T05:13:38;17.60;95.90
39675;DHT22;27790;50.840;4.386;2022-08-20T05:16:04;17.70;95.90
39675;DHT22;27790;50.840;4.386;2022-08-20T05:18:31;17.80;95.90
39675;DHT22;27790;50.840;4.386;2022-08-20T05:21:01;17.80;95.70
39675;DHT22;27790;50.840;4.386;2022-08-20T05:23:35;17.90;95.60
39675;DHT22;27790;50.840;4.386;2022-08-20T05:26:04;17.90;95.30
39675;DHT22;27790;50.840;4.386;2022-08-20T05:28:32;18.00;95.10
39675;DHT22;27790;50.840;4.386;2022-08-20T05:31:01;18.00;95.10
39675;DHT22;27790;50.840;4.386;2022-08-20T05:33:27;18.10;95.10
39675;DHT22;27790;50.840;4.386;2022-08-20T05:35:55;18.20;94.80
39675;DHT22;27790;50.840;4.386;2022-08-20T05:38:24;18.20;94.60
39675;DHT22;27790;50.840;4.386;2022-08-20T05:40:50;18.30;94.60
39675;DHT22;27790;50.840;4.386;2022-08-20T05:43:16;18.30;94.50
39675;DHT22;27790;50.840;4.386;2022-08-20T05:45:44;18.30;95.00
39675;DHT22;27790;50.840;4.386;2022-08-20T05:48:16;18.40;94.60
39675;DHT22;27790;50.840;4.386;2022-08-20T05:50:43;18.40;94.60
39675;DHT22;27790;50.840;4.386;2022-08-20T05:53:10;18.40;94.50
39675;DHT22;27790;50.840;4.386;2022-08-20T05:55:35;18.60;94.30
39675;DHT22;27790;50.840;4.386;2022-08-20T05:58:03;18.70;94.10
39675;DHT22;27790;50.840;4.386;2022-08-20T06:00:29;18.90;93.80
39675;DHT22;27790;50.840;4.386;2022-08-20T06:02:55;19.30;93.40
39675;DHT22;27790;50.840;4.386;2022-08-20T06:05:32;19.80;92.50
39675;DHT22;27790;50.840;4.386;2022-08-20T06:07:59;20.30;91.40
39675;DHT22;27790;50.840;4.386;2022-08-20T06:10:24;20.50;90.90
39675;DHT22;27790;50.840;4.386;2022-08-20T06:12:50;20.50;90.80
39675;DHT22;27790;50.840;4.386;2022-08-20T06:15:18;20.50;90.80
39675;DHT22;27790;50.840;4.386;2022-08-20T06:17:43;20.30;90.90
39675;DHT22;27790;50.840;4.386;2022-08-20T06:20:09;20.20;91.10
39675;DHT22;27790;50.840;4.386;2022-08-20T06:22:35;20.10;91.10
39675;DHT22;27790;50.840;4.386;2022-08-20T06:25:03;20.10;91.40
39675;DHT22;27790;50.840;4.386;2022-08-20T06:27:29;20.20;91.30
39675;DHT22;27790;50.840;4.386;2022-08-20T06:29:55;20.20;91.00
39675;DHT22;27790;50.840;4.386;2022-08-20T06:32:21;20.10;91.10
39675;DHT22;27790;50.840;4.386;2022-08-20T06:34:49;20.00;91.40
39675;DHT22;27790;50.840;4.386;2022-08-20T06:37:18;20.10;91.60
39675;DHT22;27790;50.840;4.386;2022-08-20T06:39:44;20.10;91.40
39675;DHT22;27790;50.840;4.386;2022-08-20T06:42:09;20.10;91.60
39675;DHT22;27790;50.840;4.386;2022-08-20T06:44:35;20.10;91.90
39675;DHT22;27790;50.840;4.386;2022-08-20T06:47:03;20.20;91.70
39675;DHT22;27790;50.840;4.386;2022-08-20T06:49:33;20.30;91.70
39675;DHT22;27790;50.840;4.386;2022-08-20T06:51:59;20.50;91.40
39675;DHT22;27790;50.840;4.386;2022-08-20T06:54:25;20.60;91.40
39675;DHT22;27790;50.840;4.386;2022-08-20T06:56:50;20.80;91.00
39675;DHT22;27790;50.840;4.386;2022-08-20T06:59:18;20.90;91.00
39675;DHT22;27790;50.840;4.386;2022-08-20T07:01:43;21.00;90.50
39675;DHT22;27790;50.840;4.386;2022-08-20T07:04:09;21.20;90.50
39675;DHT22;27790;50.840;4.386;2022-08-20T07:06:35;21.40;90.30
39675;DHT22;27790;50.840;4.386;2022-08-20T07:09:00;21.50;90.00
39675;DHT22;27790;50.840;4.386;2022-08-20T07:11:26;21.70;90.00
39675;DHT22;27790;50.840;4.386;2022-08-20T07:13:52;21.80;89.80
39675;DHT22;27790;50.840;4.386;2022-08-20T07:16:18;22.00;88.50
39675;DHT22;27790;50.840;4.386;2022-08-20T07:18:43;22.20;87.80
39675;DHT22;27790;50.840;4.386;2022-08-20T07:21:09;22.30;87.70
39675;DHT22;27790;50.840;4.386;2022-08-20T07:23:36;22.40;86.90
39675;DHT22;27790;50.840;4.386;2022-08-20T07:26:02;22.50;87.20
39675;DHT22;27790;50.840;4.386;2022-08-20T07:28:28;22.70;87.00
39675;DHT22;27790;50.840;4.386;2022-08-20T07:30:55;23.10;85.90
39675;DHT22;27790;50.840;4.386;2022-08-20T07:33:32;23.40;84.60
39675;DHT22;27790;50.840;4.386;2022-08-20T07:35:59;23.90;83.40
39675;DHT22;27790;50.840;4.386;2022-08-20T07:38:27;24.40;82.30
39675;DHT22;27790;50.840;4.386;2022-08-20T07:41:01;25.00;79.90
39675;DHT22;27790;50.840;4.386;2022-08-20T07:43:27;25.30;78.70
39675;DHT22;27790;50.840;4.386;2022-08-20T07:45:55;25.80;78.50
39675;DHT22;27790;50.840;4.386;2022-08-20T07:48:24;26.20;76.50
39675;DHT22;27790;50.840;4.386;2022-08-20T07:50:51;26.60;75.40
39675;DHT22;27790;50.840;4.386;2022-08-20T07:53:17;26.90;74.20
39675;DHT22;27790;50.840;4.386;2022-08-20T07:55:42;27.20;72.90
39675;DHT22;27790;50.840;4.386;2022-08-20T07:58:11;27.30;72.20
39675;DHT22;27790;50.840;4.386;2022-08-20T08:00:37;27.30;71.90
39675;DHT22;27790;50.840;4.386;2022-08-20T08:03:03;27.40;71.60
39675;DHT22;27790;50.840;4.386;2022-08-20T08:05:31;27.50;72.10
39675;DHT22;27790;50.840;4.386;2022-08-20T08:07:57;27.50;71.10
39675;DHT22;27790;50.840;4.386;2022-08-20T08:10:23;27.60;71.70
39675;DHT22;27790;50.840;4.386;2022-08-20T08:12:51;27.80;72.00
39675;DHT22;27790;50.840;4.386;2022-08-20T08:15:23;28.20;70.70
39675;DHT22;27790;50.840;4.386;2022-08-20T08:17:53;28.40;70.00
39675;DHT22;27790;50.840;4.386;2022-08-20T08:20:20;28.50;69.70
39675;DHT22;27790;50.840;4.386;2022-08-20T08:22:47;28.70;69.30
39675;DHT22;27790;50.840;4.386;2022-08-20T08:25:14;28.80;68.90
39675;DHT22;27790;50.840;4.386;2022-08-20T08:27:41;28.90;68.50
39675;DHT22;27790;50.840;4.386;2022-08-20T08:30:08;29.10;68.00
39675;DHT22;27790;50.840;4.386;2022-08-20T08:32:36;29.30;68.10
39675;DHT22;27790;50.840;4.386;2022-08-20T08:35:04;29.50;67.60
39675;DHT22;27790;50.840;4.386;2022-08-20T08:37:32;29.50;67.20
39675;DHT22;27790;50.840;4.386;2022-08-20T08:39:57;29.60;66.60
39675;DHT22;27790;50.840;4.386;2022-08-20T08:42:37;29.90;66.00
39675;DHT22;27790;50.840;4.386;2022-08-20T08:45:06;30.30;65.40
39675;DHT22;27790;50.840;4.386;2022-08-20T08:47:36;30.70;65.20
39675;DHT22;27790;50.840;4.386;2022-08-20T08:50:05;30.70;64.10
39675;DHT22;27790;50.840;4.386;2022-08-20T08:52:35;30.90;64.20
39675;DHT22;27790;50.840;4.386;2022-08-20T08:55:05;31.00;63.60
39675;DHT22;27790;50.840;4.386;2022-08-20T08:57:31;31.20;63.00
39675;DHT22;27790;50.840;4.386;2022-08-20T09:00:11;31.20;62.70
39675;DHT22;27790;50.840;4.386;2022-08-20T09:02:38;31.20;62.00
39675;DHT22;27790;50.840;4.386;2022-08-20T09:05:13;30.10;64.60
39675;DHT22;27790;50.840;4.386;2022-08-20T09:07:41;30.40;63.50
39675;DHT22;27790;50.840;4.386;2022-08-20T09:10:09;30.70;62.10
39675;DHT22;27790;50.840;4.386;2022-08-20T09:12:35;30.60;60.60
39675;DHT22;27790;50.840;4.386;2022-08-20T09:15:01;30.20;61.80
39675;DHT22;27790;50.840;4.386;2022-08-20T09:17:27;29.40;61.20
39675;DHT22;27790;50.840;4.386;2022-08-20T09:19:52;28.90;60.80
39675;DHT22;27790;50.840;4.386;2022-08-20T09:22:22;28.00;62.10
39675;DHT22;27790;50.840;4.386;2022-08-20T09:24:50;27.00;64.50
39675;DHT22;27790;50.840;4.386;2022-08-20T09:27:16;26.70;65.90
39675;DHT22;27790;50.840;4.386;2022-08-20T09:29:42;26.80;66.00
39675;DHT22;27790;50.840;4.386;2022-08-20T09:32:13;26.80;66.30
39675;DHT22;27790;50.840;4.386;2022-08-20T09:34:43;26.90;66.10
39675;DHT22;27790;50.840;4.386;2022-08-20T09:37:09;26.90;66.90
39675;DHT22;27790;50.840;4.386;2022-08-20T09:39:35;26.80;65.70
39675;DHT22;27790;50.840;4.386;2022-08-20T09:44:34;26.10;62.70
39675;DHT22;27790;50.840;4.386;2022-08-20T09:47:00;25.80;63.60
39675;DHT22;27790;50.840;4.386;2022-08-20T09:49:25;25.60;63.80
39675;DHT22;27790;50.840;4.386;2022-08-20T09:51:51;25.50;61.70
39675;DHT22;27790;50.840;4.386;2022-08-20T09:54:17;25.50;61.90
39675;DHT22;27790;50.840;4.386;2022-08-20T09:56:43;25.60;62.80
39675;DHT22;27790;50.840;4.386;2022-08-20T09:59:08;25.60;61.00
39675;DHT22;27790;50.840;4.386;2022-08-20T10:01:34;25.60;60.00
39675;DHT22;27790;50.840;4.386;2022-08-20T10:03:59;25.50;59.90
39675;DHT22;27790;50.840;4.386;2022-08-20T10:06:25;25.50;60.20
39675;DHT22;27790;50.840;4.386;2022-08-20T10:08:51;25.50;58.80
39675;DHT22;27790;50.840;4.386;2022-08-20T10:11:16;25.20;59.00
39675;DHT22;27790;50.840;4.386;2022-08-20T10:13:42;25.20;59.50
39675;DHT22;27790;50.840;4.386;2022-08-20T10:16:08;25.20;58.60
39675;DHT22;27790;50.840;4.386;2022-08-20T10:18:34;25.00;61.20
39675;DHT22;27790;50.840;4.386;2022-08-20T10:21:00;25.00;60.70
39675;DHT22;27790;50.840;4.386;2022-08-20T10:23:26;25.10;61.30
39675;DHT22;27790;50.840;4.386;2022-08-20T10:25:52;25.20;60.50
39675;DHT22;27790;50.840;4.386;2022-08-20T10:28:17;25.20;62.40
39675;DHT22;27790;50.840;4.386;2022-08-20T10:30:43;25.10;60.70
39675;DHT22;27790;50.840;4.386;2022-08-20T10:33:09;25.20;60.00
39675;DHT22;27790;50.840;4.386;2022-08-20T10:35:35;25.20;61.10
39675;DHT22;27790;50.840;4.386;2022-08-20T10:38:00;25.30;60.70
39675;DHT22;27790;50.840;4.386;2022-08-20T10:40:26;25.40;61.40
39675;DHT22;27790;50.840;4.386;2022-08-20T10:42:52;25.40;59.80
39675;DHT22;27790;50.840;4.386;2022-08-20T10:45:18;25.50;60.90
39675;DHT22;27790;50.840;4.386;2022-08-20T10:47:44;25.60;59.10
39675;DHT22;27790;50.840;4.386;2022-08-20T10:50:12;25.60;60.60
39675;DHT22;27790;50.840;4.386;2022-08-20T10:52:39;25.70;58.60
39675;DHT22;27790;50.840;4.386;2022-08-20T10:55:05;25.70;59.00
39675;DHT22;27790;50.840;4.386;2022-08-20T10:57:31;25.80;58.00
39675;DHT22;27790;50.840;4.386;2022-08-20T10:59:58;26.00;59.20
39675;DHT22;27790;50.840;4.386;2022-08-20T11:02:24;25.90;59.20
39675;DHT22;27790;50.840;4.386;2022-08-20T11:04:51;25.60;57.20
39675;DHT22;27790;50.840;4.386;2022-08-20T11:07:23;25.40;58.50
39675;DHT22;27790;50.840;4.386;2022-08-20T11:09:50;25.20;58.40
39675;DHT22;27790;50.840;4.386;2022-08-20T11:12:18;25.10;59.40
39675;DHT22;27790;50.840;4.386;2022-08-20T11:14:44;25.00;60.00
39675;DHT22;27790;50.840;4.386;2022-08-20T11:17:10;25.00;60.40
39675;DHT22;27790;50.840;4.386;2022-08-20T11:19:41;25.00;61.40
39675;DHT22;27790;50.840;4.386;2022-08-20T11:22:07;24.90;58.70
39675;DHT22;27790;50.840;4.386;2022-08-20T11:24:34;24.90;60.50
39675;DHT22;27790;50.840;4.386;2022-08-20T11:26:59;24.90;60.00
39675;DHT22;27790;50.840;4.386;2022-08-20T11:29:25;24.90;59.50
39675;DHT22;27790;50.840;4.386;2022-08-20T11:31:51;24.80;59.10
39675;DHT22;27790;50.840;4.386;2022-08-20T11:34:17;24.70;58.20
39675;DHT22;27790;50.840;4.386;2022-08-20T11:36:43;24.60;58.70
39675;DHT22;27790;50.840;4.386;2022-08-20T11:39:09;24.80;59.00
39675;DHT22;27790;50.840;4.386;2022-08-20T11:41:35;24.90;58.80
39675;DHT22;27790;50.840;4.386;2022-08-20T11:44:01;25.10;58.60
39675;DHT22;27790;50.840;4.386;2022-08-20T11:46:26;25.10;58.40
39675;DHT22;27790;50.840;4.386;2022-08-20T11:48:52;25.00;58.60
39675;DHT22;27790;50.840;4.386;2022-08-20T11:51:17;24.80;59.10
39675;DHT22;27790;50.840;4.386;2022-08-20T11:53:43;24.70;60.30
39675;DHT22;27790;50.840;4.386;2022-08-20T11:56:08;24.70;60.80
39675;DHT22;27790;50.840;4.386;2022-08-20T11:58:35;24.70;59.80
39675;DHT22;27790;50.840;4.386;2022-08-20T12:01:00;24.80;59.30
39675;DHT22;27790;50.840;4.386;2022-08-20T12:03:26;25.00;58.50
39675;DHT22;27790;50.840;4.386;2022-08-20T12:05:51;25.00;58.50
39675;DHT22;27790;50.840;4.386;2022-08-20T12:08:17;25.00;57.40
39675;DHT22;27790;50.840;4.386;2022-08-20T12:10:42;25.00;57.00
39675;DHT22;27790;50.840;4.386;2022-08-20T12:13:08;25.00;57.90
39675;DHT22;27790;50.840;4.386;2022-08-20T12:15:35;25.00;58.80
39675;DHT22;27790;50.840;4.386;2022-08-20T12:18:07;25.00;57.10
39675;DHT22;27790;50.840;4.386;2022-08-20T12:20:35;25.00;60.30
39675;DHT22;27790;50.840;4.386;2022-08-20T12:23:01;25.20;57.00
39675;DHT22;27790;50.840;4.386;2022-08-20T12:25:27;24.80;56.40
39675;DHT22;27790;50.840;4.386;2022-08-20T12:27:52;24.60;57.40
39675;DHT22;27790;50.840;4.386;2022-08-20T12:30:21;24.50;59.00
39675;DHT22;27790;50.840;4.386;2022-08-20T12:32:48;24.50;59.50
39675;DHT22;27790;50.840;4.386;2022-08-20T12:35:15;24.50;59.70
39675;DHT22;27790;50.840;4.386;2022-08-20T12:37:41;24.60;58.30
39675;DHT22;27790;50.840;4.386;2022-08-20T12:40:10;24.50;57.00
39675;DHT22;27790;50.840;4.386;2022-08-20T12:42:36;24.70;56.90
39675;DHT22;27790;50.840;4.386;2022-08-20T12:45:03;24.90;56.30
39675;DHT22;27790;50.840;4.386;2022-08-20T12:47:40;25.10;58.50
39675;DHT22;27790;50.840;4.386;2022-08-20T12:50:16;25.10;56.90
39675;DHT22;27790;50.840;4.386;2022-08-20T12:52:42;25.00;56.00
39675;DHT22;27790;50.840;4.386;2022-08-20T12:55:10;24.90;57.80
39675;DHT22;27790;50.840;4.386;2022-08-20T12:57:42;24.80;55.60
39675;DHT22;27790;50.840;4.386;2022-08-20T13:02:35;24.80;57.90
39675;DHT22;27790;50.840;4.386;2022-08-20T13:05:00;24.90;57.00
39675;DHT22;27790;50.840;4.386;2022-08-20T13:07:26;25.20;55.50
39675;DHT22;27790;50.840;4.386;2022-08-20T13:09:51;25.30;54.80
39675;DHT22;27790;50.840;4.386;2022-08-20T13:12:17;25.40;54.90
39675;DHT22;27790;50.840;4.386;2022-08-20T13:14:43;25.50;54.80
39675;DHT22;27790;50.840;4.386;2022-08-20T13:17:09;25.50;56.30
39675;DHT22;27790;50.840;4.386;2022-08-20T13:19:37;25.50;56.10
39675;DHT22;27790;50.840;4.386;2022-08-20T13:22:03;25.60;55.30
39675;DHT22;27790;50.840;4.386;2022-08-20T13:24:29;25.80;55.10
39675;DHT22;27790;50.840;4.386;2022-08-20T13:27:06;25.80;54.60
39675;DHT22;27790;50.840;4.386;2022-08-20T13:29:32;25.80;54.00
39675;DHT22;27790;50.840;4.386;2022-08-20T13:31:58;25.80;55.50
39675;DHT22;27790;50.840;4.386;2022-08-20T13:34:23;25.80;53.90
39675;DHT22;27790;50.840;4.386;2022-08-20T13:36:49;26.00;53.40
39675;DHT22;27790;50.840;4.386;2022-08-20T13:39:15;25.90;55.50
39675;DHT22;27790;50.840;4.386;2022-08-20T13:41:41;25.90;54.10
39675;DHT22;27790;50.840;4.386;2022-08-20T13:44:08;25.70;53.30
39675;DHT22;27790;50.840;4.386;2022-08-20T13:46:34;25.40;53.80
39675;DHT22;27790;50.840;4.386;2022-08-20T13:49:00;25.20;55.20
39675;DHT22;27790;50.840;4.386;2022-08-20T13:51:25;25.10;56.30
39675;DHT22;27790;50.840;4.386;2022-08-20T13:53:51;25.00;56.90
39675;DHT22;27790;50.840;4.386;2022-08-20T13:56:17;25.00;55.90
39675;DHT22;27790;50.840;4.386;2022-08-20T13:58:42;25.00;58.20
39675;DHT22;27790;50.840;4.386;2022-08-20T14:01:08;25.20;58.60
39675;DHT22;27790;50.840;4.386;2022-08-20T14:03:33;25.30;56.60
39675;DHT22;27790;50.840;4.386;2022-08-20T14:06:00;25.40;54.90
39675;DHT22;27790;50.840;4.386;2022-08-20T14:08:26;25.40;54.70
39675;DHT22;27790;50.840;4.386;2022-08-20T14:10:52;25.30;55.60
39675;DHT22;27790;50.840;4.386;2022-08-20T14:13:21;25.20;57.10
39675;DHT22;27790;50.840;4.386;2022-08-20T14:15:47;25.20;56.00
39675;DHT22;27790;50.840;4.386;2022-08-20T14:18:13;25.20;55.40
39675;DHT22;27790;50.840;4.386;2022-08-20T14:20:40;25.30;54.40
39675;DHT22;27790;50.840;4.386;2022-08-20T14:23:06;25.10;55.00
39675;DHT22;27790;50.840;4.386;2022-08-20T14:25:32;25.10;55.00
39675;DHT22;27790;50.840;4.386;2022-08-20T14:28:06;25.10;54.90
39675;DHT22;27790;50.840;4.386;2022-08-20T14:30:32;24.90;55.30
39675;DHT22;27790;50.840;4.386;2022-08-20T14:32:58;24.90;56.40
39675;DHT22;27790;50.840;4.386;2022-08-20T14:35:24;25.00;55.00
39675;DHT22;27790;50.840;4.386;2022-08-20T14:37:51;25.00;55.00
39675;DHT22;27790;50.840;4.386;2022-08-20T14:40:18;25.00;55.40
39675;DHT22;27790;50.840;4.386;2022-08-20T14:42:45;24.90;57.20
39675;DHT22;27790;50.840;4.386;2022-08-20T14:45:12;24.90;58.10
39675;DHT22;27790;50.840;4.386;2022-08-20T14:47:41;24.90;55.50
39675;DHT22;27790;50.840;4.386;2022-08-20T14:50:15;24.90;55.70
39675;DHT22;27790;50.840;4.386;2022-08-20T14:52:41;25.00;55.00
39675;DHT22;27790;50.840;4.386;2022-08-20T14:55:16;25.00;54.70
39675;DHT22;27790;50.840;4.386;2022-08-20T14:57:42;24.90;55.30
39675;DHT22;27790;50.840;4.386;2022-08-20T15:00:13;24.80;55.50
39675;DHT22;27790;50.840;4.386;2022-08-20T15:02:40;24.90;55.70
39675;DHT22;27790;50.840;4.386;2022-08-20T15:05:06;25.00;57.90
39675;DHT22;27790;50.840;4.386;2022-08-20T15:07:35;25.20;55.90
39675;DHT22;27790;50.840;4.386;2022-08-20T15:10:07;25.30;55.90
39675;DHT22;27790;50.840;4.386;2022-08-20T15:12:33;25.30;54.30
39675;DHT22;27790;50.840;4.386;2022-08-20T15:15:00;25.20;55.10
39675;DHT22;27790;50.840;4.386;2022-08-20T15:17:28;25.10;56.60
39675;DHT22;27790;50.840;4.386;2022-08-20T15:19:54;25.00;55.70
39675;DHT22;27790;50.840;4.386;2022-08-20T15:22:21;24.70;56.80
39675;DHT22;27790;50.840;4.386;2022-08-20T15:24:47;24.60;57.20
39675;DHT22;27790;50.840;4.386;2022-08-20T15:27:15;24.60;57.80
39675;DHT22;27790;50.840;4.386;2022-08-20T15:29:42;24.80;59.10
39675;DHT22;27790;50.840;4.386;2022-08-20T15:32:08;25.00;57.90
39675;DHT22;27790;50.840;4.386;2022-08-20T15:34:35;25.10;55.30
39675;DHT22;27790;50.840;4.386;2022-08-20T15:37:13;25.10;55.00
39675;DHT22;27790;50.840;4.386;2022-08-20T15:39:40;25.10;54.90